createdAt,value
2023-05-18T00:00:23.797Z,3.90
2023-05-18T00:05:24.999Z,4.07
2023-05-18T00:10:29.784Z,4.27
2023-05-18T00:15:31.683Z,4.07
2023-05-18T00:20:34.023Z,4.17
2023-05-18T00:25:35.537Z,3.70
2023-05-18T00:30:36.880Z,3.67
2023-05-18T00:35:38.375Z,3.57
2023-05-18T00:40:39.619Z,4.00
2023-05-18T00:45:41.100Z,4.00
2023-05-18T00:50:42.981Z,4.80
2023-05-18T00:55:44.324Z,4.20
2023-05-18T01:00:45.742Z,3.67
2023-05-18T01:05:54.939Z,3.57
2023-05-18T01:11:09.966Z,3.57
2023-05-18T01:16:17.831Z,3.43
2023-05-18T01:22:08.469Z,3.97
2023-05-18T01:27:13.660Z,3.63
2023-05-18T01:32:21.884Z,3.63
2023-05-18T01:37:23.342Z,3.53
2023-05-18T01:42:29.735Z,4.00
2023-05-18T01:47:32.817Z,4.07
2023-05-18T01:52:39.840Z,3.80
2023-05-18T01:57:43.793Z,4.07
2023-05-18T02:02:45.346Z,3.77
2023-05-18T02:07:49.360Z,4.07
2023-05-18T02:12:52.134Z,4.40
2023-05-18T02:17:57.362Z,3.93
2023-05-18T02:22:59.496Z,3.50
2023-05-18T02:28:00.954Z,4.00
2023-05-18T02:33:03.721Z,4.47
2023-05-18T02:38:05.178Z,4.20
2023-05-18T02:43:06.612Z,4.57
2023-05-18T02:48:08.631Z,3.70
2023-05-18T02:53:10.620Z,4.53
2023-05-18T02:58:15.461Z,3.87
2023-05-18T03:03:41.438Z,4.47
2023-05-18T03:08:42.868Z,4.57
2023-05-18T03:13:46.619Z,4.33
2023-05-18T03:18:48.270Z,4.27
2023-05-18T03:23:50.486Z,4.57
2023-05-18T03:28:52.062Z,4.00
2023-05-18T03:33:53.545Z,5.10
2023-05-18T03:38:54.903Z,4.20
2023-05-18T03:43:56.382Z,4.30
2023-05-18T03:48:57.758Z,4.53
2023-05-18T03:54:06.419Z,4.77
2023-05-18T03:59:07.879Z,4.87
2023-05-18T04:04:17.138Z,4.47
2023-05-18T04:09:21.168Z,5.43
2023-05-18T04:14:27.356Z,4.87
2023-05-18T04:19:28.893Z,5.23
2023-05-18T04:24:32.477Z,4.77
2023-05-18T04:29:34.381Z,5.10
2023-05-18T04:34:36.664Z,5.30
2023-05-18T04:39:38.851Z,5.10
2023-05-18T04:44:44.827Z,4.70
2023-05-18T04:49:48.456Z,5.17
2023-05-18T04:54:50.572Z,5.17
2023-05-18T04:59:52.583Z,4.73
2023-05-18T05:04:56.610Z,5.00
2023-05-18T05:09:57.890Z,4.90
2023-05-18T05:14:59.157Z,5.13
2023-05-18T05:20:00.791Z,5.20
2023-05-18T05:25:05.694Z,4.93
2023-05-18T05:30:08.691Z,5.57
2023-05-18T05:35:11.630Z,4.60
2023-05-18T05:40:13.429Z,4.90
2023-05-18T05:45:18.400Z,4.40
2023-05-18T05:50:23.148Z,5.93
2023-05-18T05:55:27.012Z,5.10
2023-05-18T06:00:28.575Z,5.20
2023-05-18T06:05:35.207Z,4.93
2023-05-18T06:10:40.544Z,4.50
2023-05-18T06:15:42.889Z,5.13
2023-05-18T06:20:44.363Z,4.80
2023-05-18T06:25:46.610Z,4.80
2023-05-18T06:31:20.354Z,5.87
2023-05-18T06:36:29.235Z,5.03
2023-05-18T06:41:32.777Z,5.80
2023-05-18T06:46:35.265Z,5.50
2023-05-18T06:51:43.025Z,5.33
2023-05-18T06:56:45.676Z,5.63
2023-05-18T07:01:46.999Z,5.53
2023-05-18T07:06:55.105Z,5.10
2023-05-18T07:11:56.449Z,5.43
2023-05-18T07:16:57.995Z,5.57
2023-05-18T07:21:59.569Z,5.63
2023-05-18T07:27:01.214Z,4.90
2023-05-18T07:32:02.951Z,5.37
2023-05-18T07:37:04.515Z,5.10
2023-05-18T07:42:06.042Z,7.03
2023-05-18T07:47:07.657Z,5.80
2023-05-18T07:52:09.223Z,5.43
2023-05-18T07:57:10.616Z,5.53
2023-05-18T08:02:12.132Z,5.80
2023-05-18T08:07:17.211Z,5.20
2023-05-18T08:12:18.664Z,5.03
2023-05-18T08:17:20.444Z,4.90
2023-05-18T08:22:21.680Z,4.77
2023-05-18T08:27:23.216Z,4.85
2023-05-18T08:32:24.784Z,5.25
2023-05-18T08:37:28.649Z,4.88
2023-05-18T08:42:49.369Z,5.15
2023-05-18T08:47:54.805Z,4.85
2023-05-18T08:53:01.093Z,5.13
2023-05-18T08:58:04.419Z,4.80
2023-05-18T09:03:05.919Z,5.18
2023-05-18T09:08:09.267Z,5.20
2023-05-18T09:13:11.662Z,5.32
2023-05-18T09:18:13.228Z,4.97
2023-05-18T09:23:15.730Z,4.45
2023-05-18T09:28:31.798Z,4.30
2023-05-18T09:33:36.017Z,3.88
2023-05-18T09:38:38.798Z,4.28
2023-05-18T09:43:40.564Z,3.80
2023-05-18T09:48:53.482Z,3.75
2023-05-18T09:53:57.277Z,3.83
2023-05-18T09:59:08.197Z,3.47
2023-05-18T10:04:09.913Z,3.85
2023-05-18T10:09:15.937Z,3.42
2023-05-18T10:14:17.143Z,3.10
2023-05-18T10:19:19.191Z,3.50
2023-05-18T10:24:21.452Z,3.75
2023-05-18T10:29:23.712Z,3.42
2023-05-18T10:34:25.058Z,3.50
2023-05-18T10:39:27.655Z,3.38
2023-05-18T10:44:30.492Z,3.33
2023-05-18T10:49:32.929Z,3.78
2023-05-18T10:54:35.855Z,3.60
2023-05-18T10:59:42.856Z,4.35
2023-05-18T11:04:47.076Z,3.88
2023-05-18T11:09:49.049Z,4.00
2023-05-18T11:14:54.601Z,3.95
2023-05-18T11:20:05.138Z,3.83
2023-05-18T11:25:09.011Z,4.20
2023-05-18T11:30:32.602Z,3.35
2023-05-18T11:35:34.724Z,3.67
2023-05-18T11:40:49.716Z,3.33
2023-05-18T11:45:59.448Z,4.45
2023-05-18T11:51:00.983Z,4.10
2023-05-18T11:56:02.322Z,4.30
2023-05-18T12:01:04.035Z,4.40
2023-05-18T12:06:06.164Z,3.92
2023-05-18T12:11:07.359Z,4.47
2023-05-18T12:16:10.641Z,4.75
2023-05-18T12:21:12.024Z,4.82
2023-05-18T12:26:13.837Z,5.43
2023-05-18T12:31:15.600Z,4.68
2023-05-18T12:36:16.843Z,4.60
2023-05-18T12:41:22.694Z,4.40
2023-05-18T12:46:24.212Z,4.00
2023-05-18T12:51:30.857Z,4.80
2023-05-18T12:57:02.246Z,4.47
2023-05-18T13:02:03.958Z,4.78
2023-05-18T13:07:05.176Z,4.90
2023-05-18T13:12:08.081Z,4.72
2023-05-18T13:17:09.666Z,3.95
2023-05-18T13:22:10.804Z,4.32
2023-05-18T13:27:11.909Z,4.20
2023-05-18T13:32:13.223Z,3.90
2023-05-18T13:37:15.392Z,3.65
2023-05-18T13:42:20.390Z,3.95
2023-05-18T13:47:21.585Z,4.28
2023-05-18T13:52:22.895Z,4.50
2023-05-18T13:57:25.621Z,3.50
2023-05-18T14:02:26.992Z,3.53
2023-05-18T14:07:28.256Z,4.03
2023-05-18T14:12:29.325Z,4.10
2023-05-18T14:17:31.765Z,4.65
2023-05-18T14:22:33.238Z,4.50
2023-05-18T14:27:34.499Z,4.20
2023-05-18T14:32:35.702Z,4.05
2023-05-18T14:37:36.989Z,3.75
2023-05-18T14:42:38.441Z,3.80
2023-05-18T14:47:39.873Z,3.92
2023-05-18T14:52:41.292Z,4.18
2023-05-18T14:57:44.049Z,3.75
2023-05-18T15:02:45.288Z,3.53
2023-05-18T15:07:46.664Z,4.00
2023-05-18T15:12:48.459Z,3.45
2023-05-18T15:17:49.754Z,3.42
2023-05-18T15:22:50.901Z,4.00
2023-05-18T15:27:52.966Z,3.92
2023-05-18T15:32:55.256Z,2.78
2023-05-18T15:37:56.424Z,3.38
2023-05-18T15:42:57.746Z,3.38
2023-05-18T15:47:59.061Z,4.20
2023-05-18T15:53:00.211Z,3.10
2023-05-18T15:58:02.521Z,3.35
2023-05-18T16:03:03.841Z,3.42
2023-05-18T16:08:05.532Z,3.58
2023-05-18T16:13:06.630Z,3.88
2023-05-18T16:18:08.035Z,4.10
2023-05-18T16:23:09.353Z,3.78
2023-05-18T16:28:10.602Z,3.78
2023-05-18T16:33:12.394Z,3.60
2023-05-18T16:38:14.054Z,3.97
2023-05-18T16:43:15.445Z,3.70
2023-05-18T16:48:16.732Z,3.78
2023-05-18T16:53:18.213Z,3.95
2023-05-18T16:58:20.247Z,3.42
2023-05-18T17:03:21.710Z,4.40
2023-05-18T17:08:23.033Z,4.15
2023-05-18T17:13:24.241Z,3.80
2023-05-18T17:18:25.471Z,4.53
2023-05-18T17:23:26.586Z,3.70
2023-05-18T17:28:27.962Z,4.00
2023-05-18T17:33:29.335Z,4.47
2023-05-18T17:38:30.649Z,4.00
2023-05-18T17:43:31.816Z,4.35
2023-05-18T17:48:33.089Z,3.60
2023-05-18T17:53:34.179Z,4.28
2023-05-18T17:58:38.391Z,4.28
2023-05-18T18:03:39.862Z,5.03
2023-05-18T18:08:42.105Z,3.92
2023-05-18T18:13:53.719Z,3.60
2023-05-18T18:18:55.807Z,3.95
2023-05-18T18:23:57.229Z,4.50
2023-05-18T18:28:58.456Z,4.15
2023-05-18T18:33:59.921Z,5.32
2023-05-18T18:39:01.255Z,3.72
2023-05-18T18:44:02.509Z,3.95
2023-05-18T18:49:03.907Z,3.87
2023-05-18T18:54:05.442Z,3.50
2023-05-18T18:59:06.886Z,4.33
2023-05-18T19:04:08.285Z,4.10
2023-05-18T19:09:10.029Z,4.03
2023-05-18T19:14:11.370Z,3.80
2023-05-18T19:19:12.725Z,3.33
2023-05-18T19:24:14.062Z,3.47
2023-05-18T19:29:15.317Z,3.93
2023-05-18T19:34:16.821Z,3.43
2023-05-18T19:39:18.943Z,3.70
2023-05-18T19:44:20.154Z,3.73
2023-05-18T19:49:21.624Z,3.73
2023-05-18T19:54:22.956Z,4.00
2023-05-18T19:59:24.153Z,3.77
2023-05-18T20:04:27.483Z,4.00
2023-05-18T20:09:29.291Z,4.10
2023-05-18T20:14:32.617Z,4.27
2023-05-18T20:19:36.945Z,3.93
2023-05-18T20:24:42.554Z,3.63
2023-05-18T20:29:43.742Z,3.67
2023-05-18T20:34:45.233Z,4.13
2023-05-18T20:39:49.781Z,4.43
2023-05-18T20:44:51.910Z,3.80
2023-05-18T20:49:53.338Z,3.93
2023-05-18T20:54:54.806Z,3.70
2023-05-18T20:59:55.952Z,4.53
2023-05-18T21:04:57.338Z,4.17
2023-05-18T21:09:58.752Z,4.53
2023-05-18T21:14:59.983Z,4.43
2023-05-18T21:20:01.347Z,4.40
2023-05-18T21:25:05.370Z,4.73
2023-05-18T21:30:07.262Z,4.03
2023-05-18T21:35:08.819Z,4.67
2023-05-18T21:40:10.269Z,4.13
2023-05-18T21:45:12.069Z,4.57
2023-05-18T21:50:13.413Z,4.43
2023-05-18T21:55:14.723Z,5.87
2023-05-18T22:00:17.290Z,5.27
2023-05-18T22:05:18.772Z,5.30
2023-05-18T22:10:20.563Z,5.23
2023-05-18T22:15:21.970Z,5.00
2023-05-18T22:20:23.277Z,5.73
2023-05-18T22:25:25.580Z,4.80
2023-05-18T22:30:27.835Z,5.70
2023-05-18T22:35:29.592Z,5.93
2023-05-18T22:40:30.980Z,5.33
2023-05-18T22:45:33.410Z,6.07
2023-05-18T22:50:34.832Z,5.77
2023-05-18T22:55:36.442Z,6.27
2023-05-18T23:00:37.811Z,6.40
2023-05-18T23:05:42.643Z,6.33
2023-05-18T23:10:43.953Z,6.47
2023-05-18T23:15:46.988Z,7.67
2023-05-18T23:20:50.232Z,6.50
2023-05-18T23:25:51.894Z,6.63
2023-05-18T23:30:53.262Z,6.30
2023-05-18T23:35:59.123Z,6.63
2023-05-18T23:41:02.822Z,6.90
2023-05-18T23:46:04.325Z,7.37
2023-05-18T23:51:07.805Z,7.80
2023-05-18T23:56:09.342Z,7.83
